메인 페이지
METAR-TAF:

METAR-TAF

공항 :

General Wayne Downing Peoria International Airport

피오리아, 일리노이, 미국

위도: 40-40-03N, 경도: 089-41-02W, 고도: 201m

현재 날씨관측

예보는 59분 전, 10:54시(UTC)에 발표되었습니다.
남서3kt
온도 0°C
습도 86%
기압 1020 hPa
시정: 16.1km
맑음

METAR: KPIA 281054Z 23003KT 10SM CLR 00/M02 A3011 RMK AO2 SLP204 T00001022

시각: 06:53 (11:53 UTC)

예보

예보는 33분 전, 11:20시(UTC)에 발표되었습니다.
예보 대상 시간: 28일 12시부터 29일 12시까지 (UTC)
남서5kt
시정: 10km
고도 25000ft 상공 구름 보통
29일 0500시부터 (UTC)
북동5kt
시정: 10km
고도 10000ft 상공 흐림

TAF: KPIA 281120Z 2812/2912 23005KT P6SM SCT250 FM290500 05005KT P6SM OVC100

4,000개 이상의 공항 관측 자료 및 예보 (METAR 및 TAF 보고).

지도상에서 검색 가능한 기상관측소가 노란 점과 빨간 점으로 표시되어 있습니다.

기상관측소 명을 보려면 표시 위로 마우스를 이동하세요.

날씨 관측과 예보를 보려면 클릭하세요.

지도 변경 : 확대하려면 엑스 표시가 있는 녹색 버튼, 축소하려면 빼기 표시가 있는 녹색 버튼, 다음 페이지의 지도를 보려면 녹색 화살표를 클릭하세요.


METAR-TAF: